createdAt,value
2022-10-17T00:00:09.354Z,70.82
2022-10-17T00:02:36.098Z,70.76
2022-10-17T00:05:02.826Z,71.85
2022-10-17T00:07:31.116Z,71.52
2022-10-17T00:09:58.023Z,71.71
2022-10-17T00:12:24.673Z,71.36
2022-10-17T00:14:51.452Z,71.72
2022-10-17T00:17:18.067Z,72.05
2022-10-17T00:19:44.763Z,70.76
2022-10-17T00:22:12.682Z,71.42
2022-10-17T00:24:39.262Z,71.79
2022-10-17T00:27:05.864Z,71.97
2022-10-17T00:29:32.540Z,72.10
2022-10-17T00:31:59.229Z,72.01
2022-10-17T00:34:26.075Z,72.43
2022-10-17T00:36:52.743Z,73.17
2022-10-17T00:39:19.402Z,73.11
2022-10-17T00:41:46.185Z,72.93
2022-10-17T00:44:31.177Z,73.06
2022-10-17T00:47:03.669Z,73.04
2022-10-17T00:49:34.202Z,73.15
2022-10-17T00:52:04.714Z,72.80
2022-10-17T00:54:34.804Z,72.79
2022-10-17T00:57:02.105Z,72.96
2022-10-17T00:59:30.139Z,72.09
2022-10-17T01:02:03.919Z,72.55
2022-10-17T01:04:31.401Z,71.96
2022-10-17T01:06:58.504Z,72.29
2022-10-17T01:09:26.612Z,72.12
2022-10-17T01:11:56.158Z,72.13
2022-10-17T01:14:32.930Z,72.23
2022-10-17T01:17:07.109Z,72.16
2022-10-17T01:20:05.219Z,71.76
2022-10-17T01:22:59.158Z,71.65
2022-10-17T01:25:47.344Z,71.78
2022-10-17T01:28:55.603Z,71.58
2022-10-17T01:31:37.191Z,71.15
2022-10-17T01:34:29.613Z,71.74
2022-10-17T01:37:02.155Z,71.59
2022-10-17T01:39:43.930Z,71.54
2022-10-17T01:42:19.674Z,71.78
2022-10-17T01:45:13.240Z,71.52
2022-10-17T01:47:42.119Z,71.99
2022-10-17T01:50:16.624Z,71.30
2022-10-17T01:52:49.635Z,71.08
2022-10-17T01:55:24.409Z,71.15
2022-10-17T01:57:56.146Z,71.14
2022-10-17T02:00:26.205Z,70.63
2022-10-17T02:02:58.666Z,70.33
2022-10-17T02:05:30.989Z,70.37
2022-10-17T02:07:57.743Z,70.64
2022-10-17T02:10:44.843Z,70.90
2022-10-17T02:13:41.736Z,70.96
2022-10-17T02:16:19.907Z,70.60
2022-10-17T02:19:04.608Z,70.41
2022-10-17T02:22:05.758Z,70.74
2022-10-17T02:24:56.852Z,71.30
2022-10-17T02:27:42.273Z,71.08
2022-10-17T02:30:14.474Z,71.40
2022-10-17T02:32:52.503Z,71.32
2022-10-17T02:35:22.625Z,70.59
2022-10-17T02:37:51.507Z,70.90
2022-10-17T02:40:21.059Z,71.04
2022-10-17T02:42:48.798Z,71.03
2022-10-17T02:45:15.931Z,70.98
2022-10-17T02:47:56.730Z,70.71
2022-10-17T02:50:33.537Z,70.68
2022-10-17T02:53:06.248Z,70.75
2022-10-17T02:55:38.060Z,70.79
2022-10-17T02:58:11.756Z,70.46
2022-10-17T03:00:43.689Z,70.68
2022-10-17T03:03:26.225Z,70.48
2022-10-17T03:05:53.294Z,70.09
2022-10-17T03:08:23.436Z,70.29
2022-10-17T03:10:50.686Z,70.27
2022-10-17T03:13:18.129Z,70.35
2022-10-17T03:15:45.610Z,70.17
2022-10-17T03:18:12.578Z,70.18
2022-10-17T03:20:39.279Z,70.62
2022-10-17T03:23:05.919Z,70.83
2022-10-17T03:25:33.169Z,70.33
2022-10-17T03:28:01.452Z,71.12
2022-10-17T03:30:28.906Z,70.74
2022-10-17T03:32:57.944Z,70.73
2022-10-17T03:35:25.796Z,71.30
2022-10-17T03:37:52.739Z,71.51
2022-10-17T03:40:21.303Z,71.37
2022-10-17T03:42:48.480Z,71.53
2022-10-17T03:45:15.135Z,71.89
2022-10-17T03:47:42.193Z,71.94
2022-10-17T03:50:09.313Z,71.25
2022-10-17T03:52:37.582Z,70.86
2022-10-17T03:55:04.716Z,71.62
2022-10-17T03:57:31.861Z,71.15
2022-10-17T03:59:58.865Z,71.63
2022-10-17T04:02:25.500Z,71.21
2022-10-17T04:04:52.386Z,71.17
2022-10-17T04:07:19.116Z,71.44
2022-10-17T04:09:47.957Z,71.35
2022-10-17T04:12:19.056Z,71.28
2022-10-17T04:14:45.872Z,71.56
2022-10-17T04:17:12.572Z,71.60
2022-10-17T04:19:39.225Z,71.02
2022-10-17T04:22:08.512Z,71.16
2022-10-17T04:24:38.480Z,70.53
2022-10-17T04:27:28.304Z,70.20
2022-10-17T04:29:55.192Z,70.54
2022-10-17T04:32:26.224Z,70.95
2022-10-17T04:35:04.434Z,70.13
2022-10-17T04:37:31.647Z,70.31
2022-10-17T04:40:02.381Z,70.32
2022-10-17T04:42:32.826Z,70.22
2022-10-17T04:45:00.184Z,69.80
2022-10-17T04:47:27.320Z,70.20
2022-10-17T04:49:55.295Z,70.16
2022-10-17T04:52:22.787Z,70.58
2022-10-17T04:54:50.133Z,70.89
2022-10-17T04:57:18.633Z,70.54
2022-10-17T04:59:54.391Z,70.70
2022-10-17T05:02:26.617Z,71.64
2022-10-17T05:04:53.436Z,72.00
2022-10-17T05:07:20.842Z,71.89
2022-10-17T05:09:55.914Z,72.18
2022-10-17T05:12:23.213Z,72.37
2022-10-17T05:14:49.849Z,72.28
2022-10-17T05:17:16.913Z,72.73
2022-10-17T05:19:44.051Z,72.26
2022-10-17T05:22:10.690Z,72.17
2022-10-17T05:24:37.488Z,72.29
2022-10-17T05:27:04.260Z,71.95
2022-10-17T05:29:30.950Z,72.06
2022-10-17T05:32:06.139Z,71.90
2022-10-17T05:34:34.229Z,72.07
2022-10-17T05:37:00.876Z,71.88
2022-10-17T05:39:27.704Z,71.79
2022-10-17T05:41:55.883Z,72.44
2022-10-17T05:44:23.104Z,72.17
2022-10-17T05:46:54.077Z,72.17
2022-10-17T05:49:33.837Z,72.07
2022-10-17T05:52:10.095Z,71.92
2022-10-17T05:54:50.811Z,72.13
2022-10-17T05:57:17.728Z,72.24
2022-10-17T05:59:44.392Z,72.45
2022-10-17T06:02:13.916Z,72.43
2022-10-17T06:04:45.489Z,72.42
2022-10-17T06:07:13.358Z,72.65
2022-10-17T06:09:40.973Z,72.48
2022-10-17T06:12:08.695Z,72.59
2022-10-17T06:14:35.775Z,73.46
2022-10-17T06:17:04.174Z,73.20
2022-10-17T06:19:30.944Z,73.41
2022-10-17T06:21:57.839Z,73.53
2022-10-17T06:24:26.498Z,73.43
2022-10-17T06:26:53.907Z,73.95
2022-10-17T06:29:21.609Z,74.09
2022-10-17T06:31:51.418Z,74.39
2022-10-17T06:34:19.181Z,74.74
2022-10-17T06:36:47.044Z,74.40
2022-10-17T06:39:14.463Z,74.13
2022-10-17T06:41:47.165Z,73.81
2022-10-17T06:44:17.938Z,73.98
2022-10-17T06:47:03.550Z,74.07
2022-10-17T06:49:34.198Z,74.94
2022-10-17T06:52:21.269Z,74.63
2022-10-17T06:55:10.461Z,74.98
2022-10-17T06:57:47.739Z,74.61
2022-10-17T07:00:27.562Z,74.85
2022-10-17T07:02:56.529Z,74.41
2022-10-17T07:12:03.518Z,74.24
2022-10-17T07:14:32.201Z,74.31
2022-10-17T07:18:14.458Z,74.35
2022-10-17T07:20:42.687Z,74.41
2022-10-17T07:23:09.417Z,74.50
2022-10-17T07:25:40.034Z,74.80
2022-10-17T07:28:08.527Z,74.56
2022-10-17T07:30:35.330Z,74.00
2022-10-17T07:33:07.455Z,73.82
2022-10-17T07:35:34.625Z,73.28
2022-10-17T07:38:01.242Z,73.38
2022-10-17T07:40:27.915Z,73.46
2022-10-17T07:42:56.594Z,73.10
2022-10-17T07:45:27.154Z,73.36
2022-10-17T07:47:58.265Z,73.34
2022-10-17T07:50:25.760Z,73.13
2022-10-17T07:52:52.407Z,72.98
2022-10-17T07:55:19.138Z,72.80
2022-10-17T07:57:45.882Z,73.25
2022-10-17T08:00:12.739Z,72.41
2022-10-17T08:02:39.968Z,72.27
2022-10-17T08:05:07.183Z,72.84
2022-10-17T08:07:33.887Z,73.24
2022-10-17T08:10:00.859Z,73.18
2022-10-17T08:12:28.154Z,72.83
2022-10-17T08:14:55.002Z,73.29
2022-10-17T08:17:21.749Z,73.09
2022-10-17T08:19:48.461Z,72.81
2022-10-17T08:22:15.280Z,73.16
2022-10-17T08:24:42.872Z,72.38
2022-10-17T08:27:11.558Z,72.99
2022-10-17T08:29:40.753Z,73.19
2022-10-17T08:32:10.011Z,73.32
2022-10-17T08:34:36.950Z,73.99
2022-10-17T08:37:03.730Z,74.49
2022-10-17T08:39:30.674Z,74.43
2022-10-17T08:42:11.099Z,75.29
2022-10-17T08:44:56.431Z,74.93
2022-10-17T08:47:38.443Z,74.20
2022-10-17T08:50:14.698Z,74.18
2022-10-17T08:52:47.439Z,74.74
2022-10-17T08:55:27.737Z,74.10
2022-10-17T08:57:54.517Z,74.48
2022-10-17T09:00:22.303Z,74.57
2022-10-17T09:02:51.802Z,74.41
2022-10-17T09:05:59.693Z,74.92
2022-10-17T09:08:57.979Z,75.36
2022-10-17T09:12:03.924Z,75.16
2022-10-17T09:14:37.027Z,75.20
2022-10-17T09:17:15.704Z,74.33
2022-10-17T09:19:55.696Z,73.55
2022-10-17T09:22:28.358Z,72.23
2022-10-17T09:25:07.133Z,70.97
2022-10-17T09:27:38.654Z,70.11
2022-10-17T09:30:45.794Z,68.83
2022-10-17T09:33:34.503Z,67.29
2022-10-17T09:36:04.822Z,66.23
2022-10-17T09:38:39.629Z,65.54
2022-10-17T09:41:39.324Z,65.37
2022-10-17T09:44:14.762Z,64.89
2022-10-17T09:46:49.965Z,63.87
2022-10-17T09:49:27.062Z,63.69
2022-10-17T09:51:53.904Z,64.36
2022-10-17T09:54:28.628Z,63.61
2022-10-17T09:57:00.249Z,63.32
2022-10-17T09:59:35.925Z,62.46
2022-10-17T10:02:24.667Z,61.35
2022-10-17T10:05:06.598Z,61.27
2022-10-17T10:07:39.418Z,60.62
2022-10-17T10:10:26.249Z,58.94
2022-10-17T10:13:14.969Z,58.79
2022-10-17T10:15:44.720Z,58.02
2022-10-17T10:18:28.009Z,59.46
2022-10-17T10:21:23.574Z,58.43
2022-10-17T10:24:02.166Z,57.85
2022-10-17T10:26:45.510Z,57.33
2022-10-17T10:29:32.222Z,56.60
2022-10-17T10:32:23.999Z,55.54
2022-10-17T10:34:54.474Z,54.78
2022-10-17T10:37:26.352Z,55.58
2022-10-17T10:40:18.621Z,55.04
2022-10-17T10:42:54.231Z,53.35
2022-10-17T10:45:48.140Z,52.24
2022-10-17T10:48:24.910Z,52.78
2022-10-17T10:51:14.656Z,51.75
2022-10-17T10:53:50.666Z,51.64
2022-10-17T10:56:21.447Z,50.44
2022-10-17T10:58:54.004Z,49.24
2022-10-17T11:01:48.148Z,48.46
2022-10-17T11:04:20.421Z,48.72
2022-10-17T11:06:50.032Z,49.17
2022-10-17T11:09:30.085Z,49.15
2022-10-17T11:12:21.781Z,49.70
2022-10-17T11:15:07.955Z,48.07
2022-10-17T11:17:37.064Z,47.75
2022-10-17T11:20:23.186Z,48.00
2022-10-17T11:22:57.568Z,48.93
2022-10-17T11:25:40.994Z,50.69
2022-10-17T11:28:16.363Z,50.96
2022-10-17T11:31:28.865Z,51.82
2022-10-17T11:34:07.817Z,51.17
2022-10-17T11:36:38.035Z,50.79
2022-10-17T11:39:30.865Z,50.28
2022-10-17T11:42:17.314Z,49.85
2022-10-17T11:44:44.939Z,48.58
2022-10-17T11:47:33.220Z,51.73
2022-10-17T11:53:06.337Z,57.23
2022-10-17T11:55:34.449Z,57.30
2022-10-17T11:58:32.617Z,58.65
2022-10-17T12:01:41.976Z,58.59
2022-10-17T12:04:49.426Z,58.55
2022-10-17T12:07:34.421Z,60.14
2022-10-17T12:10:32.936Z,58.67
2022-10-17T12:13:28.598Z,57.31
2022-10-17T12:15:56.598Z,56.93
2022-10-17T12:18:29.812Z,56.76
2022-10-17T12:20:58.517Z,55.79
2022-10-17T12:23:30.306Z,56.29
2022-10-17T12:26:04.481Z,56.03
2022-10-17T12:28:43.857Z,55.17
2022-10-17T12:31:16.397Z,51.55
2022-10-17T12:33:45.887Z,47.63
2022-10-17T12:36:27.566Z,47.15
2022-10-17T12:39:03.782Z,47.44
2022-10-17T12:41:40.081Z,44.73
2022-10-17T12:44:13.211Z,46.47
2022-10-17T12:46:48.530Z,47.70
2022-10-17T12:49:37.461Z,47.02
2022-10-17T12:52:19.330Z,49.16
2022-10-17T12:55:11.711Z,49.13
2022-10-17T12:58:15.664Z,48.93
2022-10-17T13:00:49.818Z,48.40
2022-10-17T13:03:32.107Z,48.96
2022-10-17T13:06:05.068Z,49.28
2022-10-17T13:08:44.053Z,49.94
2022-10-17T13:11:11.757Z,50.54
2022-10-17T13:13:43.767Z,51.37
2022-10-17T13:16:32.779Z,51.47
2022-10-17T13:19:01.958Z,52.04
2022-10-17T13:21:29.546Z,52.45
2022-10-17T13:23:56.681Z,52.74
2022-10-17T13:26:26.408Z,52.46
2022-10-17T13:29:14.913Z,52.04
2022-10-17T13:31:43.843Z,50.85
2022-10-17T13:34:19.409Z,50.00
2022-10-17T13:36:48.948Z,49.06
2022-10-17T13:39:23.196Z,48.78
2022-10-17T13:41:56.694Z,48.25
2022-10-17T13:44:25.958Z,48.50
2022-10-17T13:46:53.177Z,47.51
2022-10-17T13:49:33.913Z,47.91
2022-10-17T13:52:02.599Z,48.72
2022-10-17T13:54:33.992Z,48.06
2022-10-17T13:57:01.910Z,47.48
2022-10-17T13:59:44.935Z,47.43
2022-10-17T14:02:23.662Z,47.63
2022-10-17T14:05:19.965Z,46.88
2022-10-17T14:08:22.055Z,47.57
2022-10-17T14:10:49.816Z,46.87
2022-10-17T14:13:23.457Z,46.84
2022-10-17T14:15:51.228Z,47.69
2022-10-17T14:18:22.625Z,47.66
2022-10-17T14:23:42.462Z,48.68
2022-10-17T14:26:14.611Z,48.85
2022-10-17T14:28:43.613Z,49.61
2022-10-17T14:31:25.599Z,50.14
2022-10-17T14:33:53.975Z,50.50
2022-10-17T14:36:30.042Z,50.65
2022-10-17T14:38:56.928Z,51.03
2022-10-17T14:41:43.184Z,51.13
2022-10-17T14:44:23.578Z,51.67
2022-10-17T14:46:53.036Z,51.75
2022-10-17T14:49:35.278Z,52.15
2022-10-17T14:52:18.749Z,52.27
2022-10-17T14:54:47.889Z,52.45
2022-10-17T14:57:56.271Z,52.90
2022-10-17T15:00:24.143Z,53.06
2022-10-17T15:02:53.028Z,53.63
2022-10-17T15:05:20.915Z,53.92
2022-10-17T15:07:47.824Z,54.16
2022-10-17T15:10:34.336Z,54.54
2022-10-17T15:15:53.697Z,54.82
2022-10-17T15:18:20.365Z,54.93
2022-10-17T15:20:49.579Z,55.02
2022-10-17T15:23:22.104Z,55.31
2022-10-17T15:25:48.852Z,55.65
2022-10-17T15:28:15.519Z,55.63
2022-10-17T15:30:42.299Z,56.45
2022-10-17T15:33:09.861Z,55.78
2022-10-17T15:35:40.130Z,56.59
2022-10-17T15:38:07.383Z,56.85
2022-10-17T15:40:33.991Z,56.93
2022-10-17T15:43:00.664Z,56.80
2022-10-17T15:45:27.475Z,56.68
2022-10-17T15:47:56.928Z,56.90
2022-10-17T15:50:23.690Z,56.72
2022-10-17T15:52:51.081Z,57.47
2022-10-17T15:55:19.096Z,57.36
2022-10-17T15:57:47.975Z,57.10
2022-10-17T16:00:26.636Z,57.87
2022-10-17T16:02:53.423Z,57.70
2022-10-17T16:05:23.538Z,57.85
2022-10-17T16:07:50.360Z,57.75
2022-10-17T16:10:17.451Z,57.74
2022-10-17T16:12:44.761Z,58.17
2022-10-17T16:15:17.892Z,58.66
2022-10-17T16:17:44.683Z,59.15
2022-10-17T16:20:12.750Z,59.70
2022-10-17T16:22:42.220Z,60.00
2022-10-17T16:25:24.253Z,60.46
2022-10-17T16:27:56.279Z,60.47
2022-10-17T16:30:25.215Z,61.38
2022-10-17T16:32:53.119Z,61.45
2022-10-17T16:35:33.075Z,61.80
2022-10-17T16:38:04.305Z,62.20
2022-10-17T16:40:31.068Z,62.15
2022-10-17T16:42:57.761Z,62.29
2022-10-17T16:45:24.428Z,62.77
2022-10-17T16:47:51.085Z,62.78
2022-10-17T16:50:18.493Z,62.94
2022-10-17T16:52:45.315Z,63.00
2022-10-17T16:55:12.047Z,63.81
2022-10-17T16:57:38.704Z,63.66
2022-10-17T17:00:07.513Z,63.79
2022-10-17T17:02:34.452Z,63.71
2022-10-17T17:05:01.193Z,63.98
2022-10-17T17:07:30.055Z,64.26
2022-10-17T17:09:57.178Z,64.71
2022-10-17T17:12:26.879Z,64.47
2022-10-17T17:14:53.535Z,64.89
2022-10-17T17:17:30.603Z,65.55
2022-10-17T17:20:07.511Z,65.88
2022-10-17T17:22:34.386Z,66.78
2022-10-17T17:25:01.020Z,66.13
2022-10-17T17:27:29.267Z,66.24
2022-10-17T17:29:56.613Z,66.69
2022-10-17T17:32:23.437Z,66.47
2022-10-17T17:34:50.210Z,66.94
2022-10-17T17:37:16.866Z,67.17
2022-10-17T17:39:43.470Z,67.05
2022-10-17T17:42:10.162Z,67.06
2022-10-17T17:44:36.868Z,67.41
2022-10-17T17:47:03.704Z,67.71
2022-10-17T17:49:30.577Z,67.63
2022-10-17T17:51:57.319Z,67.83
2022-10-17T17:54:24.107Z,67.79
2022-10-17T17:56:50.876Z,68.18
2022-10-17T17:59:17.543Z,68.51
2022-10-17T18:01:44.501Z,68.52
2022-10-17T18:04:11.772Z,69.06
2022-10-17T18:06:39.233Z,69.29
2022-10-17T18:09:06.743Z,69.88
2022-10-17T18:11:34.080Z,70.43
2022-10-17T18:14:03.928Z,70.23
2022-10-17T18:16:32.950Z,70.75
2022-10-17T18:19:04.235Z,70.34
2022-10-17T18:21:34.290Z,71.18
2022-10-17T18:24:01.365Z,71.47
2022-10-17T18:26:28.283Z,71.81
2022-10-17T18:28:54.992Z,71.71
2022-10-17T18:31:26.352Z,72.32
2022-10-17T18:33:54.689Z,72.42
2022-10-17T18:36:22.312Z,73.02
2022-10-17T18:38:49.564Z,73.18
2022-10-17T18:41:21.825Z,73.38
2022-10-17T18:43:50.837Z,73.40
2022-10-17T18:46:22.971Z,73.86
2022-10-17T18:48:50.615Z,74.29
2022-10-17T18:51:19.880Z,73.82
2022-10-17T18:53:53.566Z,74.02
2022-10-17T18:56:21.960Z,73.94
2022-10-17T18:58:48.925Z,74.59
2022-10-17T19:01:19.264Z,74.76
2022-10-17T19:03:47.738Z,74.90
2022-10-17T19:06:17.012Z,74.91
2022-10-17T19:08:44.476Z,75.37
2022-10-17T19:11:18.969Z,75.60
2022-10-17T19:13:46.863Z,75.62
2022-10-17T19:16:20.008Z,75.96
2022-10-17T19:18:55.260Z,75.30
2022-10-17T19:21:22.564Z,75.37
2022-10-17T19:23:54.317Z,76.45
2022-10-17T19:26:21.846Z,76.89
2022-10-17T19:28:52.179Z,77.02
2022-10-17T19:31:26.973Z,77.31
2022-10-17T19:33:57.342Z,76.72
2022-10-17T19:36:30.507Z,76.40
2022-10-17T19:39:02.284Z,76.46
2022-10-17T19:41:29.055Z,75.98
2022-10-17T19:43:56.201Z,76.46
2022-10-17T19:46:25.634Z,75.93
2022-10-17T19:48:52.895Z,75.84
2022-10-17T19:51:21.726Z,76.50
2022-10-17T19:53:48.514Z,76.61
2022-10-17T19:56:18.576Z,76.07
2022-10-17T19:58:46.524Z,76.44
2022-10-17T20:08:00.660Z,75.73
2022-10-17T20:10:27.409Z,76.15
2022-10-17T20:12:54.432Z,75.40
2022-10-17T20:15:21.573Z,75.99
2022-10-17T20:17:48.447Z,76.17
2022-10-17T20:20:15.201Z,75.50
2022-10-17T20:22:41.932Z,76.33
2022-10-17T20:25:08.790Z,76.41
2022-10-17T20:27:35.513Z,76.58
2022-10-17T20:30:02.503Z,76.38
2022-10-17T20:32:31.581Z,76.80
2022-10-17T20:34:58.984Z,76.73
2022-10-17T20:37:25.643Z,77.34
2022-10-17T20:40:10.727Z,77.03
2022-10-17T20:42:39.177Z,77.60
2022-10-17T20:45:06.615Z,77.44
2022-10-17T20:47:46.056Z,77.89
2022-10-17T20:50:14.146Z,78.37
2022-10-17T20:52:42.445Z,78.32
2022-10-17T20:55:09.291Z,77.79
2022-10-17T20:57:36.018Z,78.23
2022-10-17T21:00:03.873Z,77.99
2022-10-17T21:02:31.082Z,78.06
2022-10-17T21:04:58.082Z,78.09
2022-10-17T21:07:25.383Z,77.63
2022-10-17T21:09:52.375Z,77.71
2022-10-17T21:12:26.233Z,77.61
2022-10-17T21:15:06.223Z,77.36
2022-10-17T21:17:34.803Z,77.70
2022-10-17T21:20:01.470Z,77.72
2022-10-17T21:22:28.540Z,77.56
2022-10-17T21:24:55.471Z,77.83
2022-10-17T21:27:22.296Z,78.64
2022-10-17T21:29:49.019Z,78.39
2022-10-17T21:32:31.797Z,78.46
2022-10-17T21:35:03.924Z,78.12
2022-10-17T21:37:30.696Z,78.26
2022-10-17T21:39:57.465Z,78.07
2022-10-17T21:42:24.128Z,77.88
2022-10-17T21:44:50.835Z,77.89
2022-10-17T21:47:17.494Z,78.02
2022-10-17T21:49:44.184Z,77.81
2022-10-17T21:52:10.938Z,78.30
2022-10-17T21:54:37.552Z,77.82
2022-10-17T21:57:04.388Z,77.80
2022-10-17T21:59:31.948Z,78.42
2022-10-17T22:01:58.670Z,78.69
2022-10-17T22:04:25.418Z,78.99
2022-10-17T22:06:53.257Z,79.05
2022-10-17T22:09:23.379Z,79.05
2022-10-17T22:11:53.951Z,78.86
2022-10-17T22:14:23.063Z,78.94
2022-10-17T22:16:50.498Z,78.55
2022-10-17T22:19:24.466Z,79.36
2022-10-17T22:21:51.991Z,79.48
2022-10-17T22:26:52.291Z,78.89
2022-10-17T22:29:19.034Z,79.03
2022-10-17T22:31:45.962Z,79.15
2022-10-17T22:34:14.609Z,79.35
2022-10-17T22:36:41.763Z,79.35
2022-10-17T22:39:10.427Z,78.90
2022-10-17T22:41:37.110Z,79.44
2022-10-17T22:44:04.004Z,79.52
2022-10-17T22:46:30.815Z,79.31
2022-10-17T22:48:57.542Z,79.46
2022-10-17T22:53:56.046Z,79.37
2022-10-17T22:56:23.590Z,79.20
2022-10-17T22:58:51.041Z,79.22
2022-10-17T23:01:20.978Z,79.02
2022-10-17T23:03:48.496Z,79.22
2022-10-17T23:06:15.665Z,79.28
2022-10-17T23:08:42.910Z,79.47
2022-10-17T23:11:10.423Z,79.94
2022-10-17T23:13:37.114Z,79.71
2022-10-17T23:16:04.164Z,79.79
2022-10-17T23:21:02.585Z,80.22
2022-10-17T23:23:29.179Z,80.27
2022-10-17T23:25:56.476Z,80.18
2022-10-17T23:28:23.083Z,80.54
2022-10-17T23:30:49.752Z,80.79
2022-10-17T23:33:16.419Z,80.80
2022-10-17T23:35:43.133Z,80.66
2022-10-17T23:38:10.009Z,80.63
2022-10-17T23:40:36.924Z,80.66
2022-10-17T23:43:04.647Z,80.55
2022-10-17T23:45:36.157Z,81.07
2022-10-17T23:48:05.087Z,82.18
2022-10-17T23:50:31.791Z,82.17
2022-10-17T23:52:58.436Z,81.83
2022-10-17T23:55:25.167Z,82.48
2022-10-17T23:57:51.783Z,82.54
